sensor_id;sensor_type;location;lat;lon;timestamp;pressure;altitude;pressure_sealevel;temperature;humidity
64053;BME280;50299;49.524;8.536;2023-08-31T00:02:10;99898.19;;;12.31;81.68
64053;BME280;50299;49.524;8.536;2023-08-31T00:04:39;99897.34;;;12.43;88.57
64053;BME280;50299;49.524;8.536;2023-08-31T00:07:06;99902.22;;;12.33;82.17
64053;BME280;50299;49.524;8.536;2023-08-31T00:09:33;99898.81;;;12.24;81.20
64053;BME280;50299;49.524;8.536;2023-08-31T00:12:06;99898.31;;;12.34;89.24
64053;BME280;50299;49.524;8.536;2023-08-31T00:14:33;99895.47;;;12.47;89.61
64053;BME280;50299;49.524;8.536;2023-08-31T00:17:00;99892.84;;;12.54;87.67
64053;BME280;50299;49.524;8.536;2023-08-31T00:19:26;99899.53;;;12.65;87.52
64053;BME280;50299;49.524;8.536;2023-08-31T00:21:55;99892.47;;;12.68;88.98
64053;BME280;50299;49.524;8.536;2023-08-31T00:24:24;99894.28;;;12.76;88.58
64053;BME280;50299;49.524;8.536;2023-08-31T00:26:56;99893.69;;;12.54;79.16
64053;BME280;50299;49.524;8.536;2023-08-31T00:29:23;99897.94;;;12.08;77.22
64053;BME280;50299;49.524;8.536;2023-08-31T00:31:51;99900.28;;;12.06;87.58
64053;BME280;50299;49.524;8.536;2023-08-31T00:34:19;99892.50;;;12.12;82.39
64053;BME280;50299;49.524;8.536;2023-08-31T00:36:46;99899.81;;;12.04;85.09
64053;BME280;50299;49.524;8.536;2023-08-31T00:39:13;99904.47;;;12.44;88.20
64053;BME280;50299;49.524;8.536;2023-08-31T00:41:40;99902.06;;;12.42;84.89
64053;BME280;50299;49.524;8.536;2023-08-31T00:44:07;99901.19;;;12.54;89.70
64053;BME280;50299;49.524;8.536;2023-08-31T00:46:36;99900.53;;;12.73;89.71
64053;BME280;50299;49.524;8.536;2023-08-31T00:49:02;99903.38;;;12.76;83.76
64053;BME280;50299;49.524;8.536;2023-08-31T00:51:30;99907.88;;;12.53;80.12
64053;BME280;50299;49.524;8.536;2023-08-31T00:53:57;99916.91;;;12.34;81.34
64053;BME280;50299;49.524;8.536;2023-08-31T00:56:25;99912.50;;;12.33;84.38
64053;BME280;50299;49.524;8.536;2023-08-31T00:58:55;99921.81;;;12.41;85.93
64053;BME280;50299;49.524;8.536;2023-08-31T01:01:37;99917.06;;;12.41;84.47
64053;BME280;50299;49.524;8.536;2023-08-31T01:04:18;99908.44;;;12.15;80.55
64053;BME280;50299;49.524;8.536;2023-08-31T01:07:04;99911.25;;;12.30;82.51
64053;BME280;50299;49.524;8.536;2023-08-31T01:09:47;99915.72;;;12.35;85.45
64053;BME280;50299;49.524;8.536;2023-08-31T01:12:44;99913.28;;;12.33;84.20
64053;BME280;50299;49.524;8.536;2023-08-31T01:15:14;99908.25;;;12.51;89.50
64053;BME280;50299;49.524;8.536;2023-08-31T01:17:52;99917.56;;;12.59;81.47
64053;BME280;50299;49.524;8.536;2023-08-31T01:20:42;99921.72;;;12.65;86.00
64053;BME280;50299;49.524;8.536;2023-08-31T01:23:15;99916.34;;;12.72;84.59
64053;BME280;50299;49.524;8.536;2023-08-31T01:25:42;99923.28;;;12.50;82.29
64053;BME280;50299;49.524;8.536;2023-08-31T01:28:10;99923.75;;;12.24;77.45
64053;BME280;50299;49.524;8.536;2023-08-31T01:30:37;99921.97;;;12.04;81.23
64053;BME280;50299;49.524;8.536;2023-08-31T01:33:04;99932.69;;;12.18;83.25
64053;BME280;50299;49.524;8.536;2023-08-31T01:35:37;99935.41;;;12.46;86.27
64053;BME280;50299;49.524;8.536;2023-08-31T01:38:07;99934.00;;;12.52;83.26
64053;BME280;50299;49.524;8.536;2023-08-31T01:40:46;99936.69;;;12.48;81.19
64053;BME280;50299;49.524;8.536;2023-08-31T01:43:17;99937.38;;;12.45;80.85
64053;BME280;50299;49.524;8.536;2023-08-31T01:45:45;99942.75;;;12.38;83.56
64053;BME280;50299;49.524;8.536;2023-08-31T01:48:14;99939.06;;;12.34;80.42
64053;BME280;50299;49.524;8.536;2023-08-31T01:50:43;99944.56;;;12.46;83.16
64053;BME280;50299;49.524;8.536;2023-08-31T01:53:10;99946.09;;;12.59;87.71
64053;BME280;50299;49.524;8.536;2023-08-31T01:55:37;99943.78;;;12.62;80.71
64053;BME280;50299;49.524;8.536;2023-08-31T01:58:03;99945.41;;;12.63;81.53
64053;BME280;50299;49.524;8.536;2023-08-31T02:00:33;99943.94;;;12.53;79.77
64053;BME280;50299;49.524;8.536;2023-08-31T02:03:01;99944.72;;;12.53;82.64
64053;BME280;50299;49.524;8.536;2023-08-31T02:05:28;99942.03;;;12.41;80.38
64053;BME280;50299;49.524;8.536;2023-08-31T02:07:55;99948.78;;;12.28;79.00
64053;BME280;50299;49.524;8.536;2023-08-31T02:10:22;99948.69;;;12.24;82.99
64053;BME280;50299;49.524;8.536;2023-08-31T02:12:48;99943.03;;;12.21;83.52
64053;BME280;50299;49.524;8.536;2023-08-31T02:15:15;99951.81;;;12.23;85.50
64053;BME280;50299;49.524;8.536;2023-08-31T02:17:41;99947.16;;;11.99;77.29
64053;BME280;50299;49.524;8.536;2023-08-31T02:20:10;99957.09;;;11.88;82.26
64053;BME280;50299;49.524;8.536;2023-08-31T02:22:36;99957.25;;;11.79;81.22
64053;BME280;50299;49.524;8.536;2023-08-31T02:25:03;99958.75;;;11.64;80.82
64053;BME280;50299;49.524;8.536;2023-08-31T02:27:30;99959.69;;;11.68;82.68
64053;BME280;50299;49.524;8.536;2023-08-31T02:29:56;99965.31;;;11.84;79.66
64053;BME280;50299;49.524;8.536;2023-08-31T02:32:23;99967.38;;;11.87;84.09
64053;BME280;50299;49.524;8.536;2023-08-31T02:34:50;99965.22;;;11.80;78.76
64053;BME280;50299;49.524;8.536;2023-08-31T02:37:17;99966.72;;;11.78;81.93
64053;BME280;50299;49.524;8.536;2023-08-31T02:39:43;99970.41;;;11.70;78.26
64053;BME280;50299;49.524;8.536;2023-08-31T02:42:10;99970.75;;;11.80;80.32
64053;BME280;50299;49.524;8.536;2023-08-31T02:44:39;99978.22;;;11.68;82.57
64053;BME280;50299;49.524;8.536;2023-08-31T02:47:06;99970.53;;;11.49;80.42
64053;BME280;50299;49.524;8.536;2023-08-31T02:49:33;99967.06;;;11.64;81.22
64053;BME280;50299;49.524;8.536;2023-08-31T02:52:00;99965.91;;;11.41;80.87
64053;BME280;50299;49.524;8.536;2023-08-31T02:54:26;99969.59;;;11.45;82.78
64053;BME280;50299;49.524;8.536;2023-08-31T02:56:53;99968.44;;;11.46;84.20
64053;BME280;50299;49.524;8.536;2023-08-31T02:59:22;99962.69;;;11.39;84.85
64053;BME280;50299;49.524;8.536;2023-08-31T03:01:48;99961.88;;;11.50;85.18
64053;BME280;50299;49.524;8.536;2023-08-31T03:04:15;99958.66;;;11.60;83.31
64053;BME280;50299;49.524;8.536;2023-08-31T03:06:44;99958.53;;;11.57;84.43
64053;BME280;50299;49.524;8.536;2023-08-31T03:09:12;99965.22;;;11.56;83.26
64053;BME280;50299;49.524;8.536;2023-08-31T03:11:40;99964.75;;;11.54;85.13
64053;BME280;50299;49.524;8.536;2023-08-31T03:14:08;99977.22;;;11.60;84.21
64053;BME280;50299;49.524;8.536;2023-08-31T03:16:36;99987.38;;;11.56;82.45
64053;BME280;50299;49.524;8.536;2023-08-31T03:19:02;99988.06;;;11.41;79.52
64053;BME280;50299;49.524;8.536;2023-08-31T03:21:29;99983.69;;;11.27;78.88
64053;BME280;50299;49.524;8.536;2023-08-31T03:23:55;99988.50;;;11.30;84.50
64053;BME280;50299;49.524;8.536;2023-08-31T03:26:22;99989.66;;;11.29;83.20
64053;BME280;50299;49.524;8.536;2023-08-31T03:28:48;99993.59;;;11.28;83.32
64053;BME280;50299;49.524;8.536;2023-08-31T03:31:15;100001.41;;;11.26;83.55
64053;BME280;50299;49.524;8.536;2023-08-31T03:33:42;99993.47;;;11.25;84.69
64053;BME280;50299;49.524;8.536;2023-08-31T03:36:09;99995.19;;;11.29;83.97
64053;BME280;50299;49.524;8.536;2023-08-31T03:38:35;99998.44;;;11.19;81.82
64053;BME280;50299;49.524;8.536;2023-08-31T03:41:05;100003.97;;;11.31;82.71
64053;BME280;50299;49.524;8.536;2023-08-31T03:43:31;100005.00;;;11.15;80.91
64053;BME280;50299;49.524;8.536;2023-08-31T03:45:59;100003.50;;;11.29;84.03
64053;BME280;50299;49.524;8.536;2023-08-31T03:48:26;100002.56;;;11.38;83.03
64053;BME280;50299;49.524;8.536;2023-08-31T03:50:56;100006.75;;;11.31;79.35
64053;BME280;50299;49.524;8.536;2023-08-31T03:53:24;100007.44;;;11.28;81.90
64053;BME280;50299;49.524;8.536;2023-08-31T03:55:51;100012.25;;;11.19;83.65
64053;BME280;50299;49.524;8.536;2023-08-31T03:58:18;100010.72;;;11.09;80.65
64053;BME280;50299;49.524;8.536;2023-08-31T04:00:50;100007.03;;;11.05;83.13
64053;BME280;50299;49.524;8.536;2023-08-31T04:03:20;100007.41;;;11.16;85.07
64053;BME280;50299;49.524;8.536;2023-08-31T04:05:46;100010.19;;;11.16;84.99
64053;BME280;50299;49.524;8.536;2023-08-31T04:08:13;100020.31;;;11.12;80.22
64053;BME280;50299;49.524;8.536;2023-08-31T04:10:41;100016.09;;;10.94;79.33
64053;BME280;50299;49.524;8.536;2023-08-31T04:13:08;100013.28;;;11.02;86.51
64053;BME280;50299;49.524;8.536;2023-08-31T04:15:37;100022.94;;;11.08;82.91
64053;BME280;50299;49.524;8.536;2023-08-31T04:18:04;100032.59;;;10.90;82.10
64053;BME280;50299;49.524;8.536;2023-08-31T04:20:32;100031.72;;;10.77;79.79
64053;BME280;50299;49.524;8.536;2023-08-31T04:22:59;100029.91;;;10.60;80.77
64053;BME280;50299;49.524;8.536;2023-08-31T04:25:28;100028.00;;;10.73;83.08
64053;BME280;50299;49.524;8.536;2023-08-31T04:27:55;100025.06;;;10.78;83.96
64053;BME280;50299;49.524;8.536;2023-08-31T04:30:26;100034.50;;;10.77;83.06
64053;BME280;50299;49.524;8.536;2023-08-31T04:32:55;100031.28;;;10.75;83.79
64053;BME280;50299;49.524;8.536;2023-08-31T04:35:22;100037.06;;;10.82;85.36
64053;BME280;50299;49.524;8.536;2023-08-31T04:37:51;100035.91;;;10.83;82.71
64053;BME280;50299;49.524;8.536;2023-08-31T04:40:17;100042.72;;;10.86;81.42
64053;BME280;50299;49.524;8.536;2023-08-31T04:42:44;100043.91;;;10.97;82.17
64053;BME280;50299;49.524;8.536;2023-08-31T04:45:13;100043.09;;;10.97;86.04
64053;BME280;50299;49.524;8.536;2023-08-31T04:47:40;100051.09;;;11.10;85.88
64053;BME280;50299;49.524;8.536;2023-08-31T04:50:08;100048.94;;;11.28;85.85
64053;BME280;50299;49.524;8.536;2023-08-31T04:52:37;100063.13;;;11.27;79.24
64053;BME280;50299;49.524;8.536;2023-08-31T04:55:06;100055.13;;;11.13;81.72
64053;BME280;50299;49.524;8.536;2023-08-31T04:57:35;100059.72;;;11.09;82.75
64053;BME280;50299;49.524;8.536;2023-08-31T05:00:04;100053.47;;;11.00;84.37
64053;BME280;50299;49.524;8.536;2023-08-31T05:02:31;100058.94;;;11.21;85.67
64053;BME280;50299;49.524;8.536;2023-08-31T05:05:00;100067.25;;;11.21;82.89
64053;BME280;50299;49.524;8.536;2023-08-31T05:07:30;100070.50;;;11.23;80.22
64053;BME280;50299;49.524;8.536;2023-08-31T05:09:59;100075.41;;;11.17;79.65
64053;BME280;50299;49.524;8.536;2023-08-31T05:12:27;100065.41;;;11.25;84.46
64053;BME280;50299;49.524;8.536;2023-08-31T05:14:54;100071.75;;;11.38;81.55
64053;BME280;50299;49.524;8.536;2023-08-31T05:17:24;100070.56;;;11.14;79.62
64053;BME280;50299;49.524;8.536;2023-08-31T05:19:51;100077.84;;;11.19;81.44
64053;BME280;50299;49.524;8.536;2023-08-31T05:22:17;100076.22;;;11.18;79.76
64053;BME280;50299;49.524;8.536;2023-08-31T05:24:44;100085.22;;;11.15;81.17
64053;BME280;50299;49.524;8.536;2023-08-31T05:27:18;100085.19;;;10.81;80.62
64053;BME280;50299;49.524;8.536;2023-08-31T05:29:47;100081.53;;;10.90;79.32
64053;BME280;50299;49.524;8.536;2023-08-31T05:32:14;100095.44;;;10.81;82.70
64053;BME280;50299;49.524;8.536;2023-08-31T05:34:41;100097.75;;;10.58;80.16
64053;BME280;50299;49.524;8.536;2023-08-31T05:37:10;100095.72;;;10.67;80.05
64053;BME280;50299;49.524;8.536;2023-08-31T05:39:37;100105.72;;;10.80;81.76
64053;BME280;50299;49.524;8.536;2023-08-31T05:42:07;100112.91;;;10.73;80.27
64053;BME280;50299;49.524;8.536;2023-08-31T05:44:34;100106.38;;;10.77;81.36
64053;BME280;50299;49.524;8.536;2023-08-31T05:47:01;100107.88;;;10.75;82.48
64053;BME280;50299;49.524;8.536;2023-08-31T05:49:27;100111.38;;;10.63;82.69
64053;BME280;50299;49.524;8.536;2023-08-31T05:51:56;100121.47;;;10.59;79.49
64053;BME280;50299;49.524;8.536;2023-08-31T05:54:23;100124.25;;;10.80;79.83
64053;BME280;50299;49.524;8.536;2023-08-31T05:56:50;100117.31;;;10.74;80.23
64053;BME280;50299;49.524;8.536;2023-08-31T05:59:19;100122.84;;;10.95;80.45
64053;BME280;50299;49.524;8.536;2023-08-31T06:01:47;100121.34;;;10.76;82.55
64053;BME280;50299;49.524;8.536;2023-08-31T06:04:14;100127.28;;;10.66;81.45
64053;BME280;50299;49.524;8.536;2023-08-31T06:06:41;100128.09;;;10.88;81.19
64053;BME280;50299;49.524;8.536;2023-08-31T06:09:08;100128.69;;;10.93;80.90
64053;BME280;50299;49.524;8.536;2023-08-31T06:11:38;100118.81;;;11.04;82.38
64053;BME280;50299;49.524;8.536;2023-08-31T06:14:08;100114.28;;;10.88;81.78
64053;BME280;50299;49.524;8.536;2023-08-31T06:16:39;100116.03;;;10.92;80.48
64053;BME280;50299;49.524;8.536;2023-08-31T06:19:06;100110.75;;;10.99;81.41
64053;BME280;50299;49.524;8.536;2023-08-31T06:21:33;100130.06;;;11.20;80.61
64053;BME280;50299;49.524;8.536;2023-08-31T06:23:59;100133.69;;;11.33;80.48
64053;BME280;50299;49.524;8.536;2023-08-31T06:26:26;100118.78;;;11.71;84.81
64053;BME280;50299;49.524;8.536;2023-08-31T06:28:52;100129.41;;;12.05;79.89
64053;BME280;50299;49.524;8.536;2023-08-31T06:31:19;100135.03;;;12.33;79.64
64053;BME280;50299;49.524;8.536;2023-08-31T06:33:48;100142.72;;;12.77;78.64
64053;BME280;50299;49.524;8.536;2023-08-31T06:36:14;100152.56;;;13.02;79.57
64053;BME280;50299;49.524;8.536;2023-08-31T06:38:41;100154.16;;;13.03;72.43
64053;BME280;50299;49.524;8.536;2023-08-31T06:41:14;100157.22;;;12.86;83.63
64053;BME280;50299;49.524;8.536;2023-08-31T06:43:46;100151.94;;;12.81;83.94
64053;BME280;50299;49.524;8.536;2023-08-31T06:46:15;100153.97;;;12.96;73.50
64053;BME280;50299;49.524;8.536;2023-08-31T06:48:50;100165.63;;;12.62;73.24
64053;BME280;50299;49.524;8.536;2023-08-31T06:51:17;100162.84;;;12.37;79.40
64053;BME280;50299;49.524;8.536;2023-08-31T06:53:44;100161.47;;;12.55;77.89
64053;BME280;50299;49.524;8.536;2023-08-31T06:56:11;100163.06;;;12.56;75.98
64053;BME280;50299;49.524;8.536;2023-08-31T06:58:39;100166.34;;;12.46;71.87
64053;BME280;50299;49.524;8.536;2023-08-31T07:01:06;100163.97;;;12.61;72.07
64053;BME280;50299;49.524;8.536;2023-08-31T07:03:33;100170.44;;;12.77;74.58
64053;BME280;50299;49.524;8.536;2023-08-31T07:06:02;100171.91;;;12.87;72.18
64053;BME280;50299;49.524;8.536;2023-08-31T07:08:29;100180.75;;;12.64;74.23
64053;BME280;50299;49.524;8.536;2023-08-31T07:10:57;100175.59;;;12.38;75.83
64053;BME280;50299;49.524;8.536;2023-08-31T07:13:26;100176.13;;;12.68;72.27
64053;BME280;50299;49.524;8.536;2023-08-31T07:15:58;100180.88;;;12.68;72.72
64053;BME280;50299;49.524;8.536;2023-08-31T07:18:25;100185.16;;;12.65;69.82
64053;BME280;50299;49.524;8.536;2023-08-31T07:20:54;100187.31;;;12.59;69.71
64053;BME280;50299;49.524;8.536;2023-08-31T07:23:21;100183.06;;;12.25;76.82
64053;BME280;50299;49.524;8.536;2023-08-31T07:25:50;100187.59;;;12.30;72.41
64053;BME280;50299;49.524;8.536;2023-08-31T07:28:17;100191.84;;;12.52;73.42
64053;BME280;50299;49.524;8.536;2023-08-31T07:30:44;100185.25;;;12.56;77.00
64053;BME280;50299;49.524;8.536;2023-08-31T07:33:10;100189.53;;;12.42;74.22
64053;BME280;50299;49.524;8.536;2023-08-31T07:35:56;100193.13;;;12.54;73.58
64053;BME280;50299;49.524;8.536;2023-08-31T07:38:25;100190.69;;;12.65;75.67
64053;BME280;50299;49.524;8.536;2023-08-31T07:41:00;100193.06;;;12.79;75.12
64053;BME280;50299;49.524;8.536;2023-08-31T07:43:32;100196.78;;;12.71;70.77
64053;BME280;50299;49.524;8.536;2023-08-31T07:45:58;100197.94;;;12.82;75.18
64053;BME280;50299;49.524;8.536;2023-08-31T07:48:25;100194.09;;;12.87;68.67
64053;BME280;50299;49.524;8.536;2023-08-31T07:50:52;100200.31;;;13.08;71.70
64053;BME280;50299;49.524;8.536;2023-08-31T07:53:19;100205.91;;;12.83;74.01
64053;BME280;50299;49.524;8.536;2023-08-31T07:55:52;100201.28;;;12.88;71.59
64053;BME280;50299;49.524;8.536;2023-08-31T07:58:21;100212.28;;;12.72;71.54
64053;BME280;50299;49.524;8.536;2023-08-31T08:00:48;100218.31;;;12.62;74.46
64053;BME280;50299;49.524;8.536;2023-08-31T08:03:15;100215.88;;;12.72;72.59
64053;BME280;50299;49.524;8.536;2023-08-31T08:05:43;100222.84;;;13.06;76.69
64053;BME280;50299;49.524;8.536;2023-08-31T08:08:09;100224.13;;;13.37;78.87
64053;BME280;50299;49.524;8.536;2023-08-31T08:10:42;100229.53;;;13.74;75.89
64053;BME280;50299;49.524;8.536;2023-08-31T08:13:11;100231.78;;;14.00;71.36
64053;BME280;50299;49.524;8.536;2023-08-31T08:15:38;100228.28;;;14.03;74.87
64053;BME280;50299;49.524;8.536;2023-08-31T08:18:07;100233.13;;;14.22;70.50
64053;BME280;50299;49.524;8.536;2023-08-31T08:20:39;100227.22;;;14.23;73.78
64053;BME280;50299;49.524;8.536;2023-08-31T08:23:06;100239.59;;;14.58;71.54
64053;BME280;50299;49.524;8.536;2023-08-31T08:25:33;100235.97;;;14.73;64.23
64053;BME280;50299;49.524;8.536;2023-08-31T08:28:09;100254.69;;;14.41;63.85
64053;BME280;50299;49.524;8.536;2023-08-31T08:30:47;100248.47;;;14.00;58.38
64053;BME280;50299;49.524;8.536;2023-08-31T08:33:16;100244.88;;;13.99;55.58
64053;BME280;50299;49.524;8.536;2023-08-31T08:35:43;100245.44;;;13.61;56.81
64053;BME280;50299;49.524;8.536;2023-08-31T08:38:11;100248.84;;;13.54;58.76
64053;BME280;50299;49.524;8.536;2023-08-31T08:40:41;100241.06;;;13.20;57.42
64053;BME280;50299;49.524;8.536;2023-08-31T08:43:23;100250.53;;;13.19;58.04
64053;BME280;50299;49.524;8.536;2023-08-31T08:45:51;100249.78;;;13.06;59.21
64053;BME280;50299;49.524;8.536;2023-08-31T08:48:22;100246.34;;;12.97;60.39
64053;BME280;50299;49.524;8.536;2023-08-31T08:50:49;100254.31;;;12.98;56.59
64053;BME280;50299;49.524;8.536;2023-08-31T08:53:16;100256.31;;;12.73;58.42
64053;BME280;50299;49.524;8.536;2023-08-31T08:55:45;100263.81;;;12.73;58.92
64053;BME280;50299;49.524;8.536;2023-08-31T08:58:12;100253.47;;;13.10;64.68
64053;BME280;50299;49.524;8.536;2023-08-31T09:00:39;100251.97;;;13.41;62.20
64053;BME280;50299;49.524;8.536;2023-08-31T09:03:09;100245.78;;;13.60;63.13
64053;BME280;50299;49.524;8.536;2023-08-31T09:05:39;100251.41;;;14.23;60.13
64053;BME280;50299;49.524;8.536;2023-08-31T09:08:09;100252.59;;;14.69;56.22
64053;BME280;50299;49.524;8.536;2023-08-31T09:10:50;100254.66;;;15.27;64.19
64053;BME280;50299;49.524;8.536;2023-08-31T09:13:16;100244.38;;;15.50;59.36
64053;BME280;50299;49.524;8.536;2023-08-31T09:15:47;100246.59;;;16.03;57.35
64053;BME280;50299;49.524;8.536;2023-08-31T09:18:43;100243.94;;;16.10;58.67
64053;BME280;50299;49.524;8.536;2023-08-31T09:21:11;100248.22;;;16.27;53.83
64053;BME280;50299;49.524;8.536;2023-08-31T09:23:37;100237.88;;;16.05;48.47
64053;BME280;50299;49.524;8.536;2023-08-31T09:26:05;100233.66;;;16.14;54.39
64053;BME280;50299;49.524;8.536;2023-08-31T09:28:43;100234.59;;;16.48;56.00
64053;BME280;50299;49.524;8.536;2023-08-31T09:31:10;100243.56;;;16.61;49.41
64053;BME280;50299;49.524;8.536;2023-08-31T09:33:37;100243.63;;;16.65;54.63
64053;BME280;50299;49.524;8.536;2023-08-31T09:36:08;100248.31;;;15.88;47.71
64053;BME280;50299;49.524;8.536;2023-08-31T09:38:44;100243.94;;;15.68;47.54
64053;BME280;50299;49.524;8.536;2023-08-31T09:41:11;100247.44;;;15.84;53.91
64053;BME280;50299;49.524;8.536;2023-08-31T09:43:38;100246.69;;;15.87;49.17
64053;BME280;50299;49.524;8.536;2023-08-31T09:46:13;100242.34;;;16.09;49.38
64053;BME280;50299;49.524;8.536;2023-08-31T09:48:40;100249.75;;;15.20;47.99
64053;BME280;50299;49.524;8.536;2023-08-31T09:51:11;100246.41;;;15.31;47.61
64053;BME280;50299;49.524;8.536;2023-08-31T09:53:39;100249.59;;;15.52;46.83
64053;BME280;50299;49.524;8.536;2023-08-31T09:56:13;100241.91;;;15.45;44.83
64053;BME280;50299;49.524;8.536;2023-08-31T09:58:42;100241.97;;;15.49;48.28
64053;BME280;50299;49.524;8.536;2023-08-31T10:01:09;100251.22;;;15.14;45.20
64053;BME280;50299;49.524;8.536;2023-08-31T10:03:53;100246.09;;;15.55;46.39
64053;BME280;50299;49.524;8.536;2023-08-31T10:06:21;100246.72;;;16.10;52.35
64053;BME280;50299;49.524;8.536;2023-08-31T10:08:48;100241.50;;;16.32;44.22
64053;BME280;50299;49.524;8.536;2023-08-31T10:11:21;100243.59;;;15.50;46.21
64053;BME280;50299;49.524;8.536;2023-08-31T10:13:50;100245.22;;;15.32;44.58
64053;BME280;50299;49.524;8.536;2023-08-31T10:16:19;100247.41;;;15.42;47.30
64053;BME280;50299;49.524;8.536;2023-08-31T10:18:46;100248.44;;;15.95;46.13
64053;BME280;50299;49.524;8.536;2023-08-31T10:21:17;100240.94;;;15.99;44.20
64053;BME280;50299;49.524;8.536;2023-08-31T10:23:50;100241.84;;;16.53;45.06
64053;BME280;50299;49.524;8.536;2023-08-31T10:26:30;100240.69;;;16.81;46.99
64053;BME280;50299;49.524;8.536;2023-08-31T10:29:00;100243.88;;;16.56;43.56
64053;BME280;50299;49.524;8.536;2023-08-31T10:31:33;100242.09;;;16.67;39.35
64053;BME280;50299;49.524;8.536;2023-08-31T10:34:04;100241.28;;;15.94;41.06
64053;BME280;50299;49.524;8.536;2023-08-31T10:36:40;100241.72;;;15.77;41.64
64053;BME280;50299;49.524;8.536;2023-08-31T10:39:17;100230.25;;;16.01;44.33
64053;BME280;50299;49.524;8.536;2023-08-31T10:42:45;100234.25;;;15.62;41.49
64053;BME280;50299;49.524;8.536;2023-08-31T10:45:13;100236.53;;;15.75;42.50
64053;BME280;50299;49.524;8.536;2023-08-31T10:47:46;100239.09;;;16.07;42.94
64053;BME280;50299;49.524;8.536;2023-08-31T10:50:18;100236.00;;;16.12;44.53
64053;BME280;50299;49.524;8.536;2023-08-31T10:52:45;100239.03;;;15.61;44.81
64053;BME280;50299;49.524;8.536;2023-08-31T10:55:12;100237.00;;;15.39;41.56
64053;BME280;50299;49.524;8.536;2023-08-31T10:57:40;100237.84;;;15.62;40.02
64053;BME280;50299;49.524;8.536;2023-08-31T11:00:08;100225.41;;;15.56;41.24
64053;BME280;50299;49.524;8.536;2023-08-31T11:02:46;100229.81;;;15.38;39.67
64053;BME280;50299;49.524;8.536;2023-08-31T11:05:18;100226.53;;;15.94;47.63
64053;BME280;50299;49.524;8.536;2023-08-31T11:07:50;100231.44;;;16.00;39.02
64053;BME280;50299;49.524;8.536;2023-08-31T11:10:19;100227.22;;;16.37;42.16
64053;BME280;50299;49.524;8.536;2023-08-31T11:12:51;100221.94;;;16.55;39.14
64053;BME280;50299;49.524;8.536;2023-08-31T11:15:22;100222.25;;;17.02;37.32
64053;BME280;50299;49.524;8.536;2023-08-31T11:17:52;100221.09;;;17.04;39.76
64053;BME280;50299;49.524;8.536;2023-08-31T11:20:21;100208.16;;;16.92;40.49
64053;BME280;50299;49.524;8.536;2023-08-31T11:22:53;100215.16;;;17.39;37.79
64053;BME280;50299;49.524;8.536;2023-08-31T11:25:22;100221.13;;;17.74;36.59
64053;BME280;50299;49.524;8.536;2023-08-31T11:27:57;100214.03;;;17.47;38.22
64053;BME280;50299;49.524;8.536;2023-08-31T11:30:38;100200.56;;;18.41;34.47
64053;BME280;50299;49.524;8.536;2023-08-31T11:33:09;100205.06;;;18.57;41.57
64053;BME280;50299;49.524;8.536;2023-08-31T11:35:43;100209.72;;;18.35;36.04
64053;BME280;50299;49.524;8.536;2023-08-31T11:38:12;100215.84;;;17.66;35.94
64053;BME280;50299;49.524;8.536;2023-08-31T11:40:39;100221.41;;;17.62;35.74
64053;BME280;50299;49.524;8.536;2023-08-31T11:43:08;100205.50;;;17.02;35.30
64053;BME280;50299;49.524;8.536;2023-08-31T11:45:39;100216.25;;;16.74;35.53
64053;BME280;50299;49.524;8.536;2023-08-31T11:48:11;100211.00;;;16.42;37.60
64053;BME280;50299;49.524;8.536;2023-08-31T11:50:38;100227.97;;;15.65;39.56
64053;BME280;50299;49.524;8.536;2023-08-31T11:53:12;100225.41;;;15.98;38.68
64053;BME280;50299;49.524;8.536;2023-08-31T11:55:49;100211.81;;;15.74;39.82
64053;BME280;50299;49.524;8.536;2023-08-31T11:58:16;100226.34;;;16.06;39.19
64053;BME280;50299;49.524;8.536;2023-08-31T12:00:43;100219.44;;;16.23;38.98
64053;BME280;50299;49.524;8.536;2023-08-31T12:03:10;100216.94;;;16.41;38.10
64053;BME280;50299;49.524;8.536;2023-08-31T12:05:48;100223.34;;;15.72;38.79
64053;BME280;50299;49.524;8.536;2023-08-31T12:08:15;100220.56;;;15.53;39.64
64053;BME280;50299;49.524;8.536;2023-08-31T12:10:46;100221.56;;;15.84;39.39
64053;BME280;50299;49.524;8.536;2023-08-31T12:13:18;100219.34;;;15.93;41.34
64053;BME280;50299;49.524;8.536;2023-08-31T12:15:52;100226.03;;;16.11;39.24
64053;BME280;50299;49.524;8.536;2023-08-31T12:18:20;100230.59;;;16.72;38.91
64053;BME280;50299;49.524;8.536;2023-08-31T12:20:50;100235.41;;;17.02;38.09
64053;BME280;50299;49.524;8.536;2023-08-31T12:23:20;100220.03;;;17.45;41.29
64053;BME280;50299;49.524;8.536;2023-08-31T12:25:54;100235.34;;;16.68;39.50
64053;BME280;50299;49.524;8.536;2023-08-31T12:28:26;100220.19;;;16.96;40.24
64053;BME280;50299;49.524;8.536;2023-08-31T12:30:54;100221.53;;;17.73;43.21
64053;BME280;50299;49.524;8.536;2023-08-31T12:33:23;100215.31;;;18.35;38.88
64053;BME280;50299;49.524;8.536;2023-08-31T12:36:02;100222.81;;;18.23;35.44
64053;BME280;50299;49.524;8.536;2023-08-31T12:38:30;100230.78;;;18.21;37.07
64053;BME280;50299;49.524;8.536;2023-08-31T12:41:00;100234.38;;;17.81;37.20
64053;BME280;50299;49.524;8.536;2023-08-31T12:43:33;100229.34;;;18.01;37.56
64053;BME280;50299;49.524;8.536;2023-08-31T12:46:00;100237.16;;;17.44;38.51
64053;BME280;50299;49.524;8.536;2023-08-31T12:48:32;100228.34;;;17.42;38.47
64053;BME280;50299;49.524;8.536;2023-08-31T12:50:59;100233.06;;;17.04;37.58
64053;BME280;50299;49.524;8.536;2023-08-31T12:53:26;100233.84;;;17.05;40.84
64053;BME280;50299;49.524;8.536;2023-08-31T12:55:54;100235.56;;;16.86;39.12
64053;BME280;50299;49.524;8.536;2023-08-31T12:58:26;100229.81;;;17.02;40.22
64053;BME280;50299;49.524;8.536;2023-08-31T13:00:58;100229.59;;;17.82;40.97
64053;BME280;50299;49.524;8.536;2023-08-31T13:03:27;100227.72;;;18.41;37.67
64053;BME280;50299;49.524;8.536;2023-08-31T13:05:57;100222.03;;;18.30;36.92